sensor_id;sensor_type;location;lat;lon;timestamp;P1;durP1;ratioP1;P2;durP2;ratioP2
568;SDS011;269;48.884;9.192;2023-03-04T00:02:22;35.28;;;25.65;;
568;SDS011;269;48.884;9.192;2023-03-04T00:04:49;33.25;;;25.15;;
568;SDS011;269;48.884;9.192;2023-03-04T00:07:16;32.22;;;24.20;;
568;SDS011;269;48.884;9.192;2023-03-04T00:09:43;35.50;;;24.27;;
568;SDS011;269;48.884;9.192;2023-03-04T00:12:11;28.80;;;22.67;;
568;SDS011;269;48.884;9.192;2023-03-04T00:14:38;30.92;;;22.70;;
568;SDS011;269;48.884;9.192;2023-03-04T00:17:07;27.30;;;21.55;;
568;SDS011;269;48.884;9.192;2023-03-04T00:19:34;27.13;;;20.83;;
568;SDS011;269;48.884;9.192;2023-03-04T00:22:01;30.60;;;20.73;;
568;SDS011;269;48.884;9.192;2023-03-04T00:24:29;28.17;;;21.98;;
568;SDS011;269;48.884;9.192;2023-03-04T00:26:56;28.15;;;22.23;;
568;SDS011;269;48.884;9.192;2023-03-04T00:29:23;29.50;;;21.40;;
568;SDS011;269;48.884;9.192;2023-03-04T00:31:50;26.83;;;21.05;;
568;SDS011;269;48.884;9.192;2023-03-04T00:34:18;27.33;;;18.92;;
568;SDS011;269;48.884;9.192;2023-03-04T00:36:45;26.00;;;19.40;;
568;SDS011;269;48.884;9.192;2023-03-04T00:39:13;26.10;;;20.00;;
568;SDS011;269;48.884;9.192;2023-03-04T00:41:40;26.48;;;21.23;;
568;SDS011;269;48.884;9.192;2023-03-04T00:44:07;28.83;;;20.77;;
568;SDS011;269;48.884;9.192;2023-03-04T00:46:35;24.88;;;19.20;;
568;SDS011;269;48.884;9.192;2023-03-04T00:49:02;29.67;;;21.10;;
568;SDS011;269;48.884;9.192;2023-03-04T00:51:30;27.13;;;19.98;;
568;SDS011;269;48.884;9.192;2023-03-04T00:53:57;27.45;;;20.10;;
568;SDS011;269;48.884;9.192;2023-03-04T00:56:24;26.75;;;19.90;;
568;SDS011;269;48.884;9.192;2023-03-04T00:58:51;25.83;;;19.70;;
568;SDS011;269;48.884;9.192;2023-03-04T01:01:19;28.10;;;21.00;;
568;SDS011;269;48.884;9.192;2023-03-04T01:03:45;26.35;;;19.65;;
568;SDS011;269;48.884;9.192;2023-03-04T01:06:12;26.88;;;20.17;;
568;SDS011;269;48.884;9.192;2023-03-04T01:08:41;26.95;;;20.70;;
568;SDS011;269;48.884;9.192;2023-03-04T01:11:09;28.70;;;21.13;;
568;SDS011;269;48.884;9.192;2023-03-04T01:13:36;27.95;;;20.88;;
568;SDS011;269;48.884;9.192;2023-03-04T01:16:04;31.95;;;22.10;;
568;SDS011;269;48.884;9.192;2023-03-04T01:18:32;27.83;;;22.25;;
568;SDS011;269;48.884;9.192;2023-03-04T01:20:59;26.58;;;20.55;;
568;SDS011;269;48.884;9.192;2023-03-04T01:23:26;27.50;;;22.02;;
568;SDS011;269;48.884;9.192;2023-03-04T01:25:54;29.23;;;21.10;;
568;SDS011;269;48.884;9.192;2023-03-04T01:28:21;29.05;;;20.17;;
568;SDS011;269;48.884;9.192;2023-03-04T01:30:49;28.40;;;20.02;;
568;SDS011;269;48.884;9.192;2023-03-04T01:33:16;25.88;;;18.95;;
568;SDS011;269;48.884;9.192;2023-03-04T01:35:43;24.77;;;19.00;;
568;SDS011;269;48.884;9.192;2023-03-04T01:38:10;28.73;;;20.55;;
568;SDS011;269;48.884;9.192;2023-03-04T01:40:38;24.92;;;18.92;;
568;SDS011;269;48.884;9.192;2023-03-04T01:43:08;26.67;;;19.75;;
568;SDS011;269;48.884;9.192;2023-03-04T01:45:41;23.73;;;17.95;;
568;SDS011;269;48.884;9.192;2023-03-04T01:48:08;24.35;;;17.95;;
568;SDS011;269;48.884;9.192;2023-03-04T01:50:40;22.80;;;17.05;;
568;SDS011;269;48.884;9.192;2023-03-04T01:53:09;26.67;;;17.73;;
568;SDS011;269;48.884;9.192;2023-03-04T01:55:43;20.25;;;16.45;;
568;SDS011;269;48.884;9.192;2023-03-04T01:58:11;24.02;;;18.00;;
568;SDS011;269;48.884;9.192;2023-03-04T02:00:39;21.92;;;15.93;;
568;SDS011;269;48.884;9.192;2023-03-04T02:03:07;23.27;;;16.77;;
568;SDS011;269;48.884;9.192;2023-03-04T02:05:37;21.10;;;17.70;;
568;SDS011;269;48.884;9.192;2023-03-04T02:08:05;23.60;;;17.42;;
568;SDS011;269;48.884;9.192;2023-03-04T02:10:33;24.60;;;18.35;;
568;SDS011;269;48.884;9.192;2023-03-04T02:13:00;21.30;;;17.40;;
568;SDS011;269;48.884;9.192;2023-03-04T02:15:29;21.30;;;16.55;;
568;SDS011;269;48.884;9.192;2023-03-04T02:17:57;22.83;;;16.95;;
568;SDS011;269;48.884;9.192;2023-03-04T02:20:27;21.45;;;17.63;;
568;SDS011;269;48.884;9.192;2023-03-04T02:23:03;20.90;;;16.27;;
568;SDS011;269;48.884;9.192;2023-03-04T02:25:36;22.55;;;17.65;;
568;SDS011;269;48.884;9.192;2023-03-04T02:28:10;22.13;;;16.30;;
568;SDS011;269;48.884;9.192;2023-03-04T02:30:37;22.08;;;16.55;;
568;SDS011;269;48.884;9.192;2023-03-04T02:33:04;23.40;;;17.48;;
568;SDS011;269;48.884;9.192;2023-03-04T02:35:32;23.85;;;17.63;;
568;SDS011;269;48.884;9.192;2023-03-04T02:37:59;24.15;;;17.30;;
568;SDS011;269;48.884;9.192;2023-03-04T02:40:27;21.42;;;16.13;;
568;SDS011;269;48.884;9.192;2023-03-04T02:42:57;20.95;;;15.70;;
568;SDS011;269;48.884;9.192;2023-03-04T02:45:36;22.52;;;16.92;;
568;SDS011;269;48.884;9.192;2023-03-04T02:48:08;23.58;;;15.80;;
568;SDS011;269;48.884;9.192;2023-03-04T02:50:37;19.98;;;15.65;;
568;SDS011;269;48.884;9.192;2023-03-04T02:53:07;24.50;;;17.58;;
568;SDS011;269;48.884;9.192;2023-03-04T02:55:34;24.02;;;17.50;;
568;SDS011;269;48.884;9.192;2023-03-04T02:58:01;25.67;;;18.10;;
568;SDS011;269;48.884;9.192;2023-03-04T03:00:28;24.85;;;16.95;;
568;SDS011;269;48.884;9.192;2023-03-04T03:02:57;21.33;;;16.30;;
568;SDS011;269;48.884;9.192;2023-03-04T03:05:25;24.00;;;17.67;;
568;SDS011;269;48.884;9.192;2023-03-04T03:07:53;21.20;;;15.52;;
568;SDS011;269;48.884;9.192;2023-03-04T03:10:21;25.17;;;16.30;;
568;SDS011;269;48.884;9.192;2023-03-04T03:12:48;26.60;;;16.70;;
568;SDS011;269;48.884;9.192;2023-03-04T03:15:16;24.35;;;17.40;;
568;SDS011;269;48.884;9.192;2023-03-04T03:17:43;24.50;;;17.85;;
568;SDS011;269;48.884;9.192;2023-03-04T03:20:12;25.60;;;18.60;;
568;SDS011;269;48.884;9.192;2023-03-04T03:22:41;26.65;;;19.05;;
568;SDS011;269;48.884;9.192;2023-03-04T03:25:08;22.20;;;16.85;;
568;SDS011;269;48.884;9.192;2023-03-04T03:27:37;25.27;;;18.10;;
568;SDS011;269;48.884;9.192;2023-03-04T03:30:05;24.27;;;18.15;;
568;SDS011;269;48.884;9.192;2023-03-04T03:32:35;24.00;;;17.05;;
568;SDS011;269;48.884;9.192;2023-03-04T03:35:02;25.27;;;17.05;;
568;SDS011;269;48.884;9.192;2023-03-04T03:37:31;23.25;;;17.25;;
568;SDS011;269;48.884;9.192;2023-03-04T03:39:58;28.17;;;17.55;;
568;SDS011;269;48.884;9.192;2023-03-04T03:42:25;25.02;;;17.92;;
568;SDS011;269;48.884;9.192;2023-03-04T03:44:52;32.17;;;18.75;;
568;SDS011;269;48.884;9.192;2023-03-04T03:47:20;25.88;;;18.30;;
568;SDS011;269;48.884;9.192;2023-03-04T03:49:47;27.63;;;18.67;;
568;SDS011;269;48.884;9.192;2023-03-04T03:52:14;26.60;;;19.08;;
568;SDS011;269;48.884;9.192;2023-03-04T03:54:42;27.27;;;19.23;;
568;SDS011;269;48.884;9.192;2023-03-04T03:57:09;29.02;;;19.77;;
568;SDS011;269;48.884;9.192;2023-03-04T03:59:36;29.67;;;19.30;;
568;SDS011;269;48.884;9.192;2023-03-04T04:02:04;26.42;;;17.67;;
568;SDS011;269;48.884;9.192;2023-03-04T04:04:31;31.20;;;20.75;;
568;SDS011;269;48.884;9.192;2023-03-04T04:06:58;27.52;;;19.90;;
568;SDS011;269;48.884;9.192;2023-03-04T04:09:25;27.67;;;19.25;;
568;SDS011;269;48.884;9.192;2023-03-04T04:11:53;30.33;;;21.77;;
568;SDS011;269;48.884;9.192;2023-03-04T04:14:20;28.98;;;20.17;;
568;SDS011;269;48.884;9.192;2023-03-04T04:16:47;25.90;;;19.55;;
568;SDS011;269;48.884;9.192;2023-03-04T04:19:17;27.13;;;19.17;;
568;SDS011;269;48.884;9.192;2023-03-04T04:21:45;28.30;;;19.80;;
568;SDS011;269;48.884;9.192;2023-03-04T04:24:13;26.35;;;18.65;;
568;SDS011;269;48.884;9.192;2023-03-04T04:26:40;29.67;;;20.77;;
568;SDS011;269;48.884;9.192;2023-03-04T04:29:09;30.50;;;21.02;;
568;SDS011;269;48.884;9.192;2023-03-04T04:31:39;32.97;;;21.38;;
568;SDS011;269;48.884;9.192;2023-03-04T04:34:07;33.22;;;21.65;;
568;SDS011;269;48.884;9.192;2023-03-04T04:36:34;30.23;;;21.00;;
568;SDS011;269;48.884;9.192;2023-03-04T04:39:02;32.13;;;22.20;;
568;SDS011;269;48.884;9.192;2023-03-04T04:41:30;33.45;;;20.92;;
568;SDS011;269;48.884;9.192;2023-03-04T04:44:03;27.58;;;19.60;;
568;SDS011;269;48.884;9.192;2023-03-04T04:46:32;30.92;;;20.42;;
568;SDS011;269;48.884;9.192;2023-03-04T04:48:59;33.05;;;21.60;;
568;SDS011;269;48.884;9.192;2023-03-04T04:51:27;37.58;;;24.70;;
568;SDS011;269;48.884;9.192;2023-03-04T04:53:54;32.78;;;20.88;;
568;SDS011;269;48.884;9.192;2023-03-04T04:56:22;34.10;;;22.67;;
568;SDS011;269;48.884;9.192;2023-03-04T04:58:51;36.85;;;23.73;;
568;SDS011;269;48.884;9.192;2023-03-04T05:01:19;32.20;;;21.40;;
568;SDS011;269;48.884;9.192;2023-03-04T05:03:48;36.92;;;22.35;;
568;SDS011;269;48.884;9.192;2023-03-04T05:06:17;33.03;;;21.08;;
568;SDS011;269;48.884;9.192;2023-03-04T05:08:45;31.35;;;20.58;;
568;SDS011;269;48.884;9.192;2023-03-04T05:11:13;36.45;;;22.48;;
568;SDS011;269;48.884;9.192;2023-03-04T05:13:40;33.53;;;21.30;;
568;SDS011;269;48.884;9.192;2023-03-04T05:16:08;37.15;;;23.52;;
568;SDS011;269;48.884;9.192;2023-03-04T05:18:35;35.42;;;20.48;;
568;SDS011;269;48.884;9.192;2023-03-04T05:21:04;34.90;;;22.70;;
568;SDS011;269;48.884;9.192;2023-03-04T05:23:32;34.97;;;22.17;;
568;SDS011;269;48.884;9.192;2023-03-04T05:26:00;39.35;;;26.30;;
568;SDS011;269;48.884;9.192;2023-03-04T05:28:27;35.08;;;22.40;;
568;SDS011;269;48.884;9.192;2023-03-04T05:30:55;35.83;;;22.23;;
568;SDS011;269;48.884;9.192;2023-03-04T05:33:21;37.10;;;22.23;;
568;SDS011;269;48.884;9.192;2023-03-04T05:35:49;37.42;;;22.52;;
568;SDS011;269;48.884;9.192;2023-03-04T05:38:18;41.13;;;25.25;;
568;SDS011;269;48.884;9.192;2023-03-04T05:40:45;40.58;;;24.60;;
568;SDS011;269;48.884;9.192;2023-03-04T05:43:12;38.10;;;23.85;;
568;SDS011;269;48.884;9.192;2023-03-04T05:45:40;39.92;;;24.73;;
568;SDS011;269;48.884;9.192;2023-03-04T05:48:07;45.78;;;25.75;;
568;SDS011;269;48.884;9.192;2023-03-04T05:50:35;31.80;;;21.98;;
568;SDS011;269;48.884;9.192;2023-03-04T05:53:02;38.28;;;22.00;;
568;SDS011;269;48.884;9.192;2023-03-04T05:55:30;40.13;;;24.35;;
568;SDS011;269;48.884;9.192;2023-03-04T05:57:57;37.15;;;23.77;;
568;SDS011;269;48.884;9.192;2023-03-04T06:00:24;35.17;;;21.98;;
568;SDS011;269;48.884;9.192;2023-03-04T06:02:51;36.80;;;23.10;;
568;SDS011;269;48.884;9.192;2023-03-04T06:05:19;36.35;;;23.88;;
568;SDS011;269;48.884;9.192;2023-03-04T06:07:46;43.05;;;23.42;;
568;SDS011;269;48.884;9.192;2023-03-04T06:10:14;37.97;;;21.27;;
568;SDS011;269;48.884;9.192;2023-03-04T06:12:45;35.78;;;22.63;;
568;SDS011;269;48.884;9.192;2023-03-04T06:15:12;35.25;;;22.77;;
568;SDS011;269;48.884;9.192;2023-03-04T06:17:40;36.03;;;23.00;;
568;SDS011;269;48.884;9.192;2023-03-04T06:20:08;31.50;;;20.85;;
568;SDS011;269;48.884;9.192;2023-03-04T06:22:36;37.20;;;23.38;;
568;SDS011;269;48.884;9.192;2023-03-04T06:25:03;37.25;;;24.48;;
568;SDS011;269;48.884;9.192;2023-03-04T06:27:32;32.50;;;22.77;;
568;SDS011;269;48.884;9.192;2023-03-04T06:30:00;34.17;;;21.55;;
568;SDS011;269;48.884;9.192;2023-03-04T06:32:27;39.28;;;23.95;;
568;SDS011;269;48.884;9.192;2023-03-04T06:34:54;46.30;;;33.47;;
568;SDS011;269;48.884;9.192;2023-03-04T06:37:21;32.67;;;22.30;;
568;SDS011;269;48.884;9.192;2023-03-04T06:39:48;35.67;;;22.20;;
568;SDS011;269;48.884;9.192;2023-03-04T06:42:15;36.33;;;23.25;;
568;SDS011;269;48.884;9.192;2023-03-04T06:44:43;35.80;;;23.58;;
568;SDS011;269;48.884;9.192;2023-03-04T06:47:12;36.38;;;23.00;;
568;SDS011;269;48.884;9.192;2023-03-04T06:49:39;32.17;;;21.00;;
568;SDS011;269;48.884;9.192;2023-03-04T06:52:06;33.63;;;21.85;;
568;SDS011;269;48.884;9.192;2023-03-04T06:54:35;33.03;;;20.98;;
568;SDS011;269;48.884;9.192;2023-03-04T06:57:02;31.15;;;19.92;;
568;SDS011;269;48.884;9.192;2023-03-04T06:59:29;27.20;;;18.80;;
568;SDS011;269;48.884;9.192;2023-03-04T07:01:56;28.60;;;19.60;;
568;SDS011;269;48.884;9.192;2023-03-04T07:04:25;26.58;;;19.17;;
568;SDS011;269;48.884;9.192;2023-03-04T07:06:52;31.27;;;20.15;;
568;SDS011;269;48.884;9.192;2023-03-04T07:09:19;27.52;;;18.98;;
568;SDS011;269;48.884;9.192;2023-03-04T07:11:46;30.27;;;19.73;;
568;SDS011;269;48.884;9.192;2023-03-04T07:14:13;25.73;;;16.70;;
568;SDS011;269;48.884;9.192;2023-03-04T07:16:40;27.52;;;18.88;;
568;SDS011;269;48.884;9.192;2023-03-04T07:19:07;27.30;;;18.52;;
568;SDS011;269;48.884;9.192;2023-03-04T07:21:35;27.50;;;18.75;;
568;SDS011;269;48.884;9.192;2023-03-04T07:24:03;30.70;;;19.08;;
568;SDS011;269;48.884;9.192;2023-03-04T07:26:30;28.30;;;18.45;;
568;SDS011;269;48.884;9.192;2023-03-04T07:28:57;27.65;;;19.30;;
568;SDS011;269;48.884;9.192;2023-03-04T07:31:25;29.10;;;19.52;;
568;SDS011;269;48.884;9.192;2023-03-04T07:33:55;24.75;;;18.10;;
568;SDS011;269;48.884;9.192;2023-03-04T07:36:23;24.55;;;18.25;;
568;SDS011;269;48.884;9.192;2023-03-04T07:38:52;28.42;;;20.60;;
568;SDS011;269;48.884;9.192;2023-03-04T07:41:20;25.55;;;17.98;;
568;SDS011;269;48.884;9.192;2023-03-04T07:43:49;26.25;;;19.00;;
568;SDS011;269;48.884;9.192;2023-03-04T07:46:17;31.05;;;19.98;;
568;SDS011;269;48.884;9.192;2023-03-04T07:48:45;27.27;;;19.25;;
568;SDS011;269;48.884;9.192;2023-03-04T07:51:13;26.42;;;18.02;;
568;SDS011;269;48.884;9.192;2023-03-04T07:53:43;26.33;;;18.08;;
568;SDS011;269;48.884;9.192;2023-03-04T07:56:13;27.05;;;18.17;;
568;SDS011;269;48.884;9.192;2023-03-04T07:58:41;27.38;;;19.00;;
568;SDS011;269;48.884;9.192;2023-03-04T08:01:09;27.50;;;19.48;;
568;SDS011;269;48.884;9.192;2023-03-04T08:03:37;26.38;;;18.63;;
568;SDS011;269;48.884;9.192;2023-03-04T08:06:05;28.25;;;18.75;;
568;SDS011;269;48.884;9.192;2023-03-04T08:08:33;26.13;;;19.27;;
568;SDS011;269;48.884;9.192;2023-03-04T08:11:02;27.02;;;20.52;;
568;SDS011;269;48.884;9.192;2023-03-04T08:13:31;29.25;;;19.92;;
568;SDS011;269;48.884;9.192;2023-03-04T08:15:58;26.83;;;19.52;;
568;SDS011;269;48.884;9.192;2023-03-04T08:18:26;24.20;;;18.00;;
568;SDS011;269;48.884;9.192;2023-03-04T08:20:53;27.63;;;18.77;;
568;SDS011;269;48.884;9.192;2023-03-04T08:23:20;24.80;;;19.00;;
568;SDS011;269;48.884;9.192;2023-03-04T08:25:47;27.67;;;19.85;;
568;SDS011;269;48.884;9.192;2023-03-04T08:28:15;26.50;;;19.33;;
568;SDS011;269;48.884;9.192;2023-03-04T08:30:43;26.88;;;20.00;;
568;SDS011;269;48.884;9.192;2023-03-04T08:33:11;27.73;;;18.23;;
568;SDS011;269;48.884;9.192;2023-03-04T08:35:38;25.67;;;18.25;;
568;SDS011;269;48.884;9.192;2023-03-04T08:38:05;27.90;;;19.40;;
568;SDS011;269;48.884;9.192;2023-03-04T08:40:32;30.33;;;19.50;;
568;SDS011;269;48.884;9.192;2023-03-04T08:42:59;27.02;;;18.52;;
568;SDS011;269;48.884;9.192;2023-03-04T08:45:26;25.73;;;17.95;;
568;SDS011;269;48.884;9.192;2023-03-04T08:47:55;25.50;;;18.45;;
568;SDS011;269;48.884;9.192;2023-03-04T08:50:22;26.48;;;19.00;;
568;SDS011;269;48.884;9.192;2023-03-04T08:52:51;23.02;;;17.58;;
568;SDS011;269;48.884;9.192;2023-03-04T08:55:18;26.35;;;18.58;;
568;SDS011;269;48.884;9.192;2023-03-04T08:57:45;24.27;;;18.50;;
568;SDS011;269;48.884;9.192;2023-03-04T09:00:13;25.25;;;18.85;;
568;SDS011;269;48.884;9.192;2023-03-04T09:02:40;23.73;;;18.80;;
568;SDS011;269;48.884;9.192;2023-03-04T09:05:09;22.67;;;18.70;;
568;SDS011;269;48.884;9.192;2023-03-04T09:07:36;25.40;;;18.85;;
568;SDS011;269;48.884;9.192;2023-03-04T09:10:03;26.63;;;19.00;;
568;SDS011;269;48.884;9.192;2023-03-04T09:12:31;25.88;;;19.20;;
568;SDS011;269;48.884;9.192;2023-03-04T09:14:58;28.10;;;19.75;;
568;SDS011;269;48.884;9.192;2023-03-04T09:17:25;29.35;;;19.85;;
568;SDS011;269;48.884;9.192;2023-03-04T09:19:52;24.80;;;19.40;;
568;SDS011;269;48.884;9.192;2023-03-04T09:22:20;23.77;;;19.25;;
568;SDS011;269;48.884;9.192;2023-03-04T09:24:47;25.83;;;19.85;;
568;SDS011;269;48.884;9.192;2023-03-04T09:27:14;26.42;;;20.40;;
568;SDS011;269;48.884;9.192;2023-03-04T09:29:42;26.67;;;20.58;;
568;SDS011;269;48.884;9.192;2023-03-04T09:32:10;26.58;;;19.60;;
568;SDS011;269;48.884;9.192;2023-03-04T09:34:37;28.55;;;20.80;;
568;SDS011;269;48.884;9.192;2023-03-04T09:37:04;25.85;;;18.60;;
568;SDS011;269;48.884;9.192;2023-03-04T09:39:32;28.25;;;19.48;;
568;SDS011;269;48.884;9.192;2023-03-04T09:41:59;24.48;;;18.48;;
568;SDS011;269;48.884;9.192;2023-03-04T09:44:28;24.02;;;19.40;;
568;SDS011;269;48.884;9.192;2023-03-04T09:46:59;22.55;;;18.48;;
568;SDS011;269;48.884;9.192;2023-03-04T09:49:28;25.38;;;18.38;;
568;SDS011;269;48.884;9.192;2023-03-04T09:51:58;23.27;;;17.42;;
568;SDS011;269;48.884;9.192;2023-03-04T09:54:32;23.90;;;18.00;;
568;SDS011;269;48.884;9.192;2023-03-04T09:57:14;23.58;;;18.02;;
568;SDS011;269;48.884;9.192;2023-03-04T09:59:49;26.52;;;18.38;;
568;SDS011;269;48.884;9.192;2023-03-04T10:02:24;26.58;;;19.20;;
568;SDS011;269;48.884;9.192;2023-03-04T10:04:58;22.38;;;17.63;;
568;SDS011;269;48.884;9.192;2023-03-04T10:07:29;22.23;;;17.55;;
568;SDS011;269;48.884;9.192;2023-03-04T10:10:01;22.65;;;17.58;;
568;SDS011;269;48.884;9.192;2023-03-04T10:12:31;23.92;;;17.58;;
568;SDS011;269;48.884;9.192;2023-03-04T10:15:05;21.67;;;17.90;;
568;SDS011;269;48.884;9.192;2023-03-04T10:17:43;23.30;;;18.65;;
568;SDS011;269;48.884;9.192;2023-03-04T10:20:14;21.38;;;16.88;;
568;SDS011;269;48.884;9.192;2023-03-04T10:22:45;25.55;;;17.88;;
568;SDS011;269;48.884;9.192;2023-03-04T10:25:16;22.58;;;18.55;;
568;SDS011;269;48.884;9.192;2023-03-04T10:27:47;25.40;;;19.35;;
568;SDS011;269;48.884;9.192;2023-03-04T10:30:18;24.67;;;19.42;;
568;SDS011;269;48.884;9.192;2023-03-04T10:32:55;23.73;;;19.38;;
568;SDS011;269;48.884;9.192;2023-03-04T10:37:54;21.70;;;18.95;;
568;SDS011;269;48.884;9.192;2023-03-04T10:40:23;24.85;;;20.20;;
568;SDS011;269;48.884;9.192;2023-03-04T10:42:58;25.23;;;20.90;;
568;SDS011;269;48.884;9.192;2023-03-04T10:45:31;22.90;;;18.98;;
568;SDS011;269;48.884;9.192;2023-03-04T10:48:01;22.75;;;19.58;;
568;SDS011;269;48.884;9.192;2023-03-04T10:50:28;24.13;;;19.98;;
568;SDS011;269;48.884;9.192;2023-03-04T10:52:56;24.75;;;19.58;;
568;SDS011;269;48.884;9.192;2023-03-04T10:55:26;23.67;;;20.40;;
568;SDS011;269;48.884;9.192;2023-03-04T10:57:55;23.10;;;20.20;;
568;SDS011;269;48.884;9.192;2023-03-04T11:00:28;24.15;;;20.20;;
568;SDS011;269;48.884;9.192;2023-03-04T11:05:51;24.23;;;21.33;;
568;SDS011;269;48.884;9.192;2023-03-04T11:08:33;22.20;;;19.60;;
568;SDS011;269;48.884;9.192;2023-03-04T11:11:01;21.63;;;19.20;;
568;SDS011;269;48.884;9.192;2023-03-04T11:13:29;24.67;;;19.92;;
568;SDS011;269;48.884;9.192;2023-03-04T11:15:59;26.90;;;21.65;;
568;SDS011;269;48.884;9.192;2023-03-04T11:18:30;26.05;;;20.95;;
568;SDS011;269;48.884;9.192;2023-03-04T11:21:04;28.52;;;22.83;;
568;SDS011;269;48.884;9.192;2023-03-04T11:23:33;26.10;;;22.33;;
568;SDS011;269;48.884;9.192;2023-03-04T11:26:07;27.40;;;22.83;;
568;SDS011;269;48.884;9.192;2023-03-04T11:28:39;33.45;;;24.75;;
568;SDS011;269;48.884;9.192;2023-03-04T11:31:12;29.25;;;22.70;;
568;SDS011;269;48.884;9.192;2023-03-04T11:33:42;28.85;;;21.92;;
568;SDS011;269;48.884;9.192;2023-03-04T11:36:24;30.48;;;23.92;;
568;SDS011;269;48.884;9.192;2023-03-04T11:39:00;29.20;;;23.05;;
568;SDS011;269;48.884;9.192;2023-03-04T11:41:31;32.00;;;24.30;;
568;SDS011;269;48.884;9.192;2023-03-04T11:44:00;29.15;;;23.55;;
568;SDS011;269;48.884;9.192;2023-03-04T11:46:49;30.88;;;23.65;;
568;SDS011;269;48.884;9.192;2023-03-04T11:49:44;29.25;;;23.63;;
568;SDS011;269;48.884;9.192;2023-03-04T11:52:21;30.85;;;24.50;;
568;SDS011;269;48.884;9.192;2023-03-04T11:58:08;30.33;;;23.83;;
568;SDS011;269;48.884;9.192;2023-03-04T12:00:48;33.95;;;25.80;;
568;SDS011;269;48.884;9.192;2023-03-04T12:03:26;33.38;;;24.98;;
568;SDS011;269;48.884;9.192;2023-03-04T12:06:11;29.70;;;23.40;;
568;SDS011;269;48.884;9.192;2023-03-04T12:08:53;31.48;;;24.85;;
568;SDS011;269;48.884;9.192;2023-03-04T12:11:30;32.63;;;23.60;;
568;SDS011;269;48.884;9.192;2023-03-04T12:14:11;29.13;;;24.88;;
568;SDS011;269;48.884;9.192;2023-03-04T12:16:55;32.55;;;26.00;;
568;SDS011;269;48.884;9.192;2023-03-04T12:22:42;37.38;;;26.83;;
568;SDS011;269;48.884;9.192;2023-03-04T12:28:13;40.38;;;27.02;;
568;SDS011;269;48.884;9.192;2023-03-04T12:30:58;33.20;;;25.73;;
568;SDS011;269;48.884;9.192;2023-03-04T12:33:35;32.10;;;26.00;;
568;SDS011;269;48.884;9.192;2023-03-04T12:36:12;33.75;;;26.80;;
568;SDS011;269;48.884;9.192;2023-03-04T12:38:52;35.65;;;26.20;;
568;SDS011;269;48.884;9.192;2023-03-04T12:41:26;32.25;;;24.90;;
568;SDS011;269;48.884;9.192;2023-03-04T12:44:04;35.72;;;25.58;;
568;SDS011;269;48.884;9.192;2023-03-04T12:46:45;35.25;;;25.38;;
568;SDS011;269;48.884;9.192;2023-03-04T12:49:37;33.22;;;24.80;;
568;SDS011;269;48.884;9.192;2023-03-04T12:52:13;33.55;;;25.42;;
568;SDS011;269;48.884;9.192;2023-03-04T12:54:45;33.72;;;26.73;;
568;SDS011;269;48.884;9.192;2023-03-04T12:57:16;35.95;;;25.80;;
568;SDS011;269;48.884;9.192;2023-03-04T12:59:46;32.53;;;25.65;;
568;SDS011;269;48.884;9.192;2023-03-04T13:02:31;30.83;;;23.40;;
568;SDS011;269;48.884;9.192;2023-03-04T13:05:16;30.50;;;23.25;;
568;SDS011;269;48.884;9.192;2023-03-04T13:07:53;30.38;;;23.67;;
568;SDS011;269;48.884;9.192;2023-03-04T13:10:28;28.00;;;23.08;;
568;SDS011;269;48.884;9.192;2023-03-04T13:12:55;30.23;;;24.77;;
568;SDS011;269;48.884;9.192;2023-03-04T13:15:29;29.35;;;22.45;;
568;SDS011;269;48.884;9.192;2023-03-04T13:18:00;27.55;;;22.55;;
568;SDS011;269;48.884;9.192;2023-03-04T13:20:33;29.05;;;22.08;;
568;SDS011;269;48.884;9.192;2023-03-04T13:23:03;27.05;;;22.15;;
568;SDS011;269;48.884;9.192;2023-03-04T13:28:43;24.63;;;20.20;;
568;SDS011;269;48.884;9.192;2023-03-04T13:31:15;23.55;;;19.88;;
568;SDS011;269;48.884;9.192;2023-03-04T13:33:54;24.48;;;18.83;;
568;SDS011;269;48.884;9.192;2023-03-04T13:39:33;25.35;;;17.77;;
568;SDS011;269;48.884;9.192;2023-03-04T13:42:01;30.27;;;21.35;;
568;SDS011;269;48.884;9.192;2023-03-04T13:47:33;23.25;;;18.80;;
568;SDS011;269;48.884;9.192;2023-03-04T13:56:09;25.38;;;18.38;;
568;SDS011;269;48.884;9.192;2023-03-04T13:58:49;26.15;;;19.92;;
568;SDS011;269;48.884;9.192;2023-03-04T14:01:23;28.35;;;21.42;;
568;SDS011;269;48.884;9.192;2023-03-04T14:03:53;26.27;;;21.40;;
568;SDS011;269;48.884;9.192;2023-03-04T14:06:22;25.77;;;20.42;;
568;SDS011;269;48.884;9.192;2023-03-04T14:08:51;28.33;;;20.50;;
568;SDS011;269;48.884;9.192;2023-03-04T14:11:23;26.63;;;21.83;;
568;SDS011;269;48.884;9.192;2023-03-04T14:13:54;28.40;;;22.00;;
568;SDS011;269;48.884;9.192;2023-03-04T14:16:25;26.38;;;19.80;;
568;SDS011;269;48.884;9.192;2023-03-04T14:18:57;25.63;;;20.15;;
568;SDS011;269;48.884;9.192;2023-03-04T14:21:27;25.08;;;19.90;;
568;SDS011;269;48.884;9.192;2023-03-04T14:23:59;27.60;;;19.23;;
568;SDS011;269;48.884;9.192;2023-03-04T14:26:27;27.27;;;21.13;;
568;SDS011;269;48.884;9.192;2023-03-04T14:28:56;24.25;;;19.17;;
568;SDS011;269;48.884;9.192;2023-03-04T14:31:25;27.58;;;20.27;;
568;SDS011;269;48.884;9.192;2023-03-04T14:33:55;26.05;;;19.85;;
568;SDS011;269;48.884;9.192;2023-03-04T14:36:28;27.45;;;20.52;;
568;SDS011;269;48.884;9.192;2023-03-04T14:38:58;28.40;;;20.50;;
568;SDS011;269;48.884;9.192;2023-03-04T14:41:28;25.23;;;19.92;;
568;SDS011;269;48.884;9.192;2023-03-04T14:44:01;28.60;;;19.95;;
568;SDS011;269;48.884;9.192;2023-03-04T14:46:33;23.23;;;19.33;;
568;SDS011;269;48.884;9.192;2023-03-04T14:49:04;28.33;;;19.67;;
568;SDS011;269;48.884;9.192;2023-03-04T14:51:46;22.98;;;19.23;;
568;SDS011;269;48.884;9.192;2023-03-04T14:54:28;27.42;;;21.15;;
568;SDS011;269;48.884;9.192;2023-03-04T14:57:00;28.83;;;20.05;;
568;SDS011;269;48.884;9.192;2023-03-04T14:59:45;25.92;;;19.75;;
568;SDS011;269;48.884;9.192;2023-03-04T15:02:20;23.05;;;19.67;;
568;SDS011;269;48.884;9.192;2023-03-04T15:04:55;24.27;;;19.25;;
568;SDS011;269;48.884;9.192;2023-03-04T15:07:29;29.02;;;20.15;;
568;SDS011;269;48.884;9.192;2023-03-04T15:09:59;23.38;;;19.10;;
568;SDS011;269;48.884;9.192;2023-03-04T15:12:29;25.02;;;20.40;;
568;SDS011;269;48.884;9.192;2023-03-04T15:14:58;25.25;;;19.92;;
568;SDS011;269;48.884;9.192;2023-03-04T15:17:28;29.42;;;20.15;;
568;SDS011;269;48.884;9.192;2023-03-04T15:22:59;24.85;;;19.38;;
568;SDS011;269;48.884;9.192;2023-03-04T15:25:31;24.20;;;18.15;;
568;SDS011;269;48.884;9.192;2023-03-04T15:27:59;22.90;;;18.45;;
568;SDS011;269;48.884;9.192;2023-03-04T15:30:27;19.23;;;15.50;;
568;SDS011;269;48.884;9.192;2023-03-04T15:32:57;26.15;;;20.27;;
568;SDS011;269;48.884;9.192;2023-03-04T15:35:26;23.60;;;17.63;;
568;SDS011;269;48.884;9.192;2023-03-04T15:37:55;25.10;;;19.67;;
568;SDS011;269;48.884;9.192;2023-03-04T15:40:26;23.27;;;18.30;;
568;SDS011;269;48.884;9.192;2023-03-04T15:42:56;27.27;;;19.10;;
568;SDS011;269;48.884;9.192;2023-03-04T15:45:25;22.65;;;17.90;;
568;SDS011;269;48.884;9.192;2023-03-04T15:47:54;28.23;;;20.23;;
568;SDS011;269;48.884;9.192;2023-03-04T15:50:21;23.75;;;17.65;;
568;SDS011;269;48.884;9.192;2023-03-04T15:52:53;27.48;;;18.73;;
568;SDS011;269;48.884;9.192;2023-03-04T15:55:25;24.58;;;17.30;;
568;SDS011;269;48.884;9.192;2023-03-04T15:57:53;23.80;;;17.90;;
568;SDS011;269;48.884;9.192;2023-03-04T16:00:21;24.38;;;17.25;;
568;SDS011;269;48.884;9.192;2023-03-04T16:02:49;21.65;;;16.70;;
568;SDS011;269;48.884;9.192;2023-03-04T16:05:16;24.13;;;18.33;;